createdAt,value
2023-05-16T00:01:21.991Z,100273.66
2023-05-16T00:03:53.921Z,100277.34
2023-05-16T00:06:25.495Z,100283.22
2023-05-16T00:08:57.233Z,100284.31
2023-05-16T00:11:29.015Z,100285.63
2023-05-16T00:14:00.805Z,100291.50
2023-05-16T00:16:32.677Z,100302.47
2023-05-16T00:19:04.149Z,100286.94
2023-05-16T00:21:35.630Z,100285.38
2023-05-16T00:24:07.096Z,100296.59
2023-05-16T00:26:38.533Z,100293.13
2023-05-16T00:29:09.969Z,100298.78
2023-05-16T00:31:41.478Z,100303.56
2023-05-16T00:34:12.993Z,100296.84
2023-05-16T00:36:44.762Z,100308.88
2023-05-16T00:39:16.218Z,100301.84
2023-05-16T00:41:48.076Z,100301.59
2023-05-16T00:44:19.854Z,100298.66
2023-05-16T00:46:51.656Z,100299.97
2023-05-16T00:49:23.556Z,100307.59
2023-05-16T00:51:54.989Z,100305.97
2023-05-16T00:54:26.614Z,100311.31
2023-05-16T00:56:58.061Z,100305.28
2023-05-16T00:59:29.810Z,100310.03
2023-05-16T01:02:01.367Z,100312.16
2023-05-16T01:04:33.181Z,100310.47
2023-05-16T01:07:04.621Z,100317.38
2023-05-16T01:09:36.083Z,100311.09
2023-05-16T01:12:07.530Z,100324.16
2023-05-16T01:14:38.996Z,100326.28
2023-05-16T01:17:10.744Z,100329.19
2023-05-16T01:19:42.369Z,100333.09
2023-05-16T01:22:14.356Z,100338.44
2023-05-16T01:24:45.791Z,100344.28
2023-05-16T01:27:17.678Z,100345.75
2023-05-16T01:29:49.146Z,100339.75
2023-05-16T01:32:20.972Z,100349.84
2023-05-16T01:34:52.462Z,100356.25
2023-05-16T01:37:24.276Z,100358.84
2023-05-16T01:39:55.777Z,100359.16
2023-05-16T01:42:27.631Z,100363.53
2023-05-16T01:44:59.289Z,100374.22
2023-05-16T01:47:31.074Z,100380.03
2023-05-16T01:50:02.788Z,100378.19
2023-05-16T01:52:34.433Z,100385.41
2023-05-16T01:55:06.022Z,100386.34
2023-05-16T01:57:37.494Z,100397.84
2023-05-16T02:00:09.250Z,100392.63
2023-05-16T02:02:40.794Z,100402.81
2023-05-16T02:05:12.333Z,100404.41
2023-05-16T02:07:43.784Z,100411.63
2023-05-16T02:10:15.546Z,100410.34
2023-05-16T02:12:47.088Z,100408.16
2023-05-16T02:15:18.961Z,100414.66
2023-05-16T02:17:50.520Z,100411.97
2023-05-16T02:20:22.037Z,100422.41
2023-05-16T02:22:53.792Z,100423.47
2023-05-16T02:25:25.572Z,100427.19
2023-05-16T02:27:57.639Z,100419.28
2023-05-16T02:30:29.101Z,100422.19
2023-05-16T02:33:00.676Z,100427.66
2023-05-16T02:35:32.184Z,100430.19
2023-05-16T02:38:03.651Z,100433.09
2023-05-16T02:40:35.147Z,100436.50
2023-05-16T02:43:06.640Z,100444.34
2023-05-16T02:45:38.124Z,100445.63
2023-05-16T02:48:09.697Z,100446.78
2023-05-16T02:50:41.221Z,100451.47
2023-05-16T02:53:12.669Z,100453.66
2023-05-16T02:55:44.144Z,100452.50
2023-05-16T02:58:15.657Z,100463.75
2023-05-16T03:00:47.210Z,100474.22
2023-05-16T03:03:18.801Z,100470.03
2023-05-16T03:05:50.713Z,100470.63
2023-05-16T03:08:22.171Z,100464.69
2023-05-16T03:10:53.899Z,100481.75
2023-05-16T03:13:25.375Z,100476.19
2023-05-16T03:15:57.247Z,100483.38
2023-05-16T03:18:29.194Z,100490.34
2023-05-16T03:21:00.760Z,100494.06
2023-05-16T03:23:32.744Z,100492.28
2023-05-16T03:26:04.194Z,100493.09
2023-05-16T03:28:35.655Z,100492.75
2023-05-16T03:31:07.178Z,100494.84
2023-05-16T03:33:38.719Z,100497.06
2023-05-16T03:36:10.188Z,100498.56
2023-05-16T03:38:41.934Z,100499.84
2023-05-16T03:41:13.409Z,100497.66
2023-05-16T03:43:44.923Z,100511.22
2023-05-16T03:46:16.418Z,100507.50
2023-05-16T03:48:48.266Z,100517.22
2023-05-16T03:51:19.727Z,100510.59
2023-05-16T03:53:51.471Z,100509.69
2023-05-16T03:56:23.230Z,100518.28
2023-05-16T03:58:54.699Z,100521.97
2023-05-16T04:01:26.201Z,100524.47
2023-05-16T04:03:57.660Z,100529.47
2023-05-16T04:06:29.295Z,100529.00
2023-05-16T04:09:00.731Z,100526.41
2023-05-16T04:11:32.533Z,100535.56
2023-05-16T04:14:04.156Z,100551.03
2023-05-16T04:16:35.804Z,100550.56
2023-05-16T04:19:07.413Z,100559.63
2023-05-16T04:21:38.933Z,100555.69
2023-05-16T04:24:10.401Z,100565.41
2023-05-16T04:26:42.112Z,100568.56
2023-05-16T04:29:13.562Z,100561.47
2023-05-16T04:31:45.387Z,100566.34
2023-05-16T04:34:17.069Z,100563.31
2023-05-16T04:36:48.533Z,100573.72
2023-05-16T04:39:20.021Z,100575.53
2023-05-16T04:41:51.511Z,100580.56
2023-05-16T04:44:23.388Z,100584.50
2023-05-16T04:46:54.912Z,100572.88
2023-05-16T04:49:26.788Z,100591.09
2023-05-16T04:51:58.250Z,100595.53
2023-05-16T04:54:30.184Z,100605.88
2023-05-16T04:57:01.645Z,100599.81
2023-05-16T04:59:33.525Z,100606.66
2023-05-16T05:02:06.395Z,100604.75
2023-05-16T05:04:37.978Z,100611.97
2023-05-16T05:07:09.846Z,100615.50
2023-05-16T05:09:41.331Z,100615.00
2023-05-16T05:12:12.981Z,100633.19
2023-05-16T05:14:44.450Z,100632.72
2023-05-16T05:17:16.290Z,100645.91
2023-05-16T05:19:47.798Z,100660.72
2023-05-16T05:22:19.436Z,100668.72
2023-05-16T05:24:50.899Z,100665.31
2023-05-16T05:27:22.707Z,100666.22
2023-05-16T05:29:54.197Z,100662.88
2023-05-16T05:32:25.992Z,100666.78
2023-05-16T05:34:57.788Z,100668.28
2023-05-16T05:37:29.256Z,100670.72
2023-05-16T05:40:01.043Z,100683.25
2023-05-16T05:42:32.510Z,100677.38
2023-05-16T05:45:04.335Z,100687.69
2023-05-16T05:47:35.991Z,100684.94
2023-05-16T05:50:07.981Z,100688.81
2023-05-16T05:52:39.466Z,100687.41
2023-05-16T05:55:11.532Z,100698.44
2023-05-16T05:57:43.022Z,100701.50
2023-05-16T06:00:14.929Z,100700.84
2023-05-16T06:02:46.436Z,100698.16
2023-05-16T06:05:18.406Z,100701.31
2023-05-16T06:07:50.318Z,100699.59
2023-05-16T06:10:22.118Z,100700.34
2023-05-16T06:12:54.245Z,100705.34
2023-05-16T06:15:25.895Z,100703.25
2023-05-16T06:17:58.087Z,100694.03
2023-05-16T06:20:29.685Z,100699.84
2023-05-16T06:23:01.519Z,100697.59
2023-05-16T06:25:32.988Z,100695.41
2023-05-16T06:28:04.838Z,100701.44
2023-05-16T06:30:36.308Z,100704.63
2023-05-16T06:33:08.139Z,100701.13
2023-05-16T06:35:40.017Z,100709.84
2023-05-16T06:38:12.093Z,100719.28
2023-05-16T06:40:43.937Z,100727.66
2023-05-16T06:43:15.506Z,100729.41
2023-05-16T06:45:47.291Z,100718.06
2023-05-16T06:48:18.844Z,100727.78
2023-05-16T06:50:50.420Z,100724.81
2023-05-16T06:53:21.993Z,100735.56
2023-05-16T06:55:53.925Z,100739.41
2023-05-16T06:58:25.435Z,100748.34
2023-05-16T07:00:57.364Z,100749.88
2023-05-16T07:03:29.278Z,100756.38
2023-05-16T07:06:01.259Z,100755.31
2023-05-16T07:08:33.188Z,100760.31
2023-05-16T07:11:04.783Z,100748.34
2023-05-16T07:13:36.332Z,100769.91
2023-05-16T07:16:07.914Z,100763.09
2023-05-16T07:18:39.573Z,100769.16
2023-05-16T07:21:11.105Z,100764.84
2023-05-16T07:23:42.913Z,100771.94
2023-05-16T07:26:14.401Z,100775.44
2023-05-16T07:28:46.385Z,100773.81
2023-05-16T07:31:17.942Z,100772.53
2023-05-16T07:33:49.802Z,100768.94
2023-05-16T07:36:21.663Z,100764.19
2023-05-16T07:38:53.379Z,100773.22
2023-05-16T07:41:25.184Z,100773.69
2023-05-16T07:43:56.806Z,100772.31
2023-05-16T07:46:28.782Z,100784.31
2023-05-16T07:49:00.322Z,100784.31
2023-05-16T07:51:32.152Z,100788.94
2023-05-16T07:54:03.683Z,100794.28
2023-05-16T07:56:35.209Z,100789.94
2023-05-16T07:59:06.780Z,100792.41
2023-05-16T08:01:38.313Z,100790.69
2023-05-16T08:04:09.843Z,100792.44
2023-05-16T08:06:41.411Z,100808.28
2023-05-16T08:09:12.954Z,100811.06
2023-05-16T08:11:44.507Z,100813.97
2023-05-16T08:14:16.279Z,100819.69
2023-05-16T08:16:47.855Z,100829.94
2023-05-16T08:19:19.444Z,100827.00
2023-05-16T08:21:51.018Z,100826.06
2023-05-16T08:24:22.856Z,100831.69
2023-05-16T08:26:54.376Z,100825.50
2023-05-16T08:29:26.394Z,100830.47
2023-05-16T08:31:58.017Z,100820.00
2023-05-16T08:34:30.062Z,100830.75
2023-05-16T08:37:01.616Z,100841.31
2023-05-16T08:39:33.482Z,100830.03
2023-05-16T08:42:05.354Z,100831.88
2023-05-16T08:44:36.939Z,100831.81
2023-05-16T08:47:08.901Z,100838.44
2023-05-16T08:49:40.477Z,100831.22
2023-05-16T08:52:12.339Z,100835.16
2023-05-16T08:54:43.817Z,100837.00
2023-05-16T08:57:15.690Z,100837.69
2023-05-16T08:59:47.206Z,100840.41
2023-05-16T09:02:19.063Z,100834.47
2023-05-16T09:04:50.593Z,100835.88
2023-05-16T09:07:22.682Z,100835.06
2023-05-16T09:09:54.255Z,100844.34
2023-05-16T09:12:26.111Z,100860.19
2023-05-16T09:14:57.983Z,100854.50
2023-05-16T09:17:38.978Z,100866.59
2023-05-16T09:20:13.043Z,100857.41
2023-05-16T09:22:44.533Z,100869.47
2023-05-16T09:25:28.690Z,100860.88
2023-05-16T09:28:03.120Z,100863.63
2023-05-16T09:30:35.388Z,100862.84
2023-05-16T09:33:07.012Z,100860.75
2023-05-16T09:38:12.945Z,100871.63
2023-05-16T09:40:44.498Z,100868.38
2023-05-16T09:43:16.635Z,100865.38
2023-05-16T09:45:49.211Z,100869.91
2023-05-16T09:48:21.180Z,100884.50
2023-05-16T09:50:52.735Z,100875.31
2023-05-16T09:53:24.610Z,100882.41
2023-05-16T09:55:56.105Z,100882.41
2023-05-16T09:58:28.024Z,100877.66
2023-05-16T10:00:59.581Z,100879.06
2023-05-16T10:03:31.313Z,100875.19
2023-05-16T10:06:02.892Z,100881.03
2023-05-16T10:08:34.410Z,100888.59
2023-05-16T10:11:05.965Z,100878.66
2023-05-16T10:13:37.679Z,100876.34
2023-05-16T10:16:09.282Z,100888.03
2023-05-16T10:18:40.917Z,100887.44
2023-05-16T10:21:12.784Z,100882.66
2023-05-16T10:23:44.675Z,100880.28
2023-05-16T10:26:16.550Z,100881.81
2023-05-16T10:28:48.137Z,100881.00
2023-05-16T10:31:19.941Z,100881.34
2023-05-16T10:33:51.473Z,100885.50
2023-05-16T10:36:23.362Z,100890.41
2023-05-16T10:38:54.846Z,100893.50
2023-05-16T10:41:26.523Z,100911.72
2023-05-16T10:43:58.039Z,100902.25
2023-05-16T10:46:29.980Z,100899.94
2023-05-16T10:49:01.639Z,100893.75
2023-05-16T10:51:33.498Z,100884.78
2023-05-16T10:54:05.423Z,100888.97
2023-05-16T10:56:36.971Z,100892.69
2023-05-16T10:59:08.787Z,100897.41
2023-05-16T11:01:40.336Z,100893.06
2023-05-16T11:04:12.089Z,100904.38
2023-05-16T11:06:43.613Z,100913.75
2023-05-16T11:09:15.169Z,100919.63
2023-05-16T11:11:49.039Z,100917.50
2023-05-16T11:14:21.479Z,100926.59
2023-05-16T11:16:53.003Z,100920.84
2023-05-16T11:19:24.924Z,100924.75
2023-05-16T11:21:56.467Z,100919.22
2023-05-16T11:24:28.418Z,100927.09
2023-05-16T11:27:00.088Z,100928.66
2023-05-16T11:29:31.925Z,100920.63
2023-05-16T11:32:03.940Z,100932.78
2023-05-16T11:34:35.545Z,100929.66
2023-05-16T11:37:07.092Z,100933.19
2023-05-16T11:39:38.637Z,100933.13
2023-05-16T11:42:10.534Z,100936.97
2023-05-16T11:44:42.024Z,100923.69
2023-05-16T11:47:13.882Z,100929.66
2023-05-16T11:49:46.981Z,100936.97
2023-05-16T11:52:19.663Z,100944.28
2023-05-16T11:54:51.502Z,100931.53
2023-05-16T11:57:23.032Z,100945.78
2023-05-16T11:59:55.043Z,100945.06
2023-05-16T12:02:26.663Z,100944.53
2023-05-16T12:04:58.532Z,100935.78
2023-05-16T12:07:30.023Z,100927.41
2023-05-16T12:10:01.821Z,100929.16
2023-05-16T12:12:33.323Z,100929.84
2023-05-16T12:15:05.179Z,100937.06
2023-05-16T12:17:36.690Z,100942.44
2023-05-16T12:20:08.490Z,100941.19
2023-05-16T12:22:39.963Z,100937.59
2023-05-16T12:25:11.955Z,100949.00
2023-05-16T12:27:45.710Z,100951.84
2023-05-16T12:30:17.706Z,100940.84
2023-05-16T12:32:49.638Z,100946.06
2023-05-16T12:35:21.319Z,100950.50
2023-05-16T12:37:53.158Z,100950.59
2023-05-16T12:40:24.667Z,100967.44
2023-05-16T12:42:56.515Z,100955.75
2023-05-16T12:45:28.032Z,100959.94
2023-05-16T12:47:59.991Z,100955.38
2023-05-16T12:50:31.564Z,100948.94
2023-05-16T12:53:03.333Z,100944.03
2023-05-16T12:55:34.799Z,100947.56
2023-05-16T12:58:06.878Z,100954.19
2023-05-16T13:00:38.375Z,100934.56
2023-05-16T13:03:10.527Z,100937.25
2023-05-16T13:05:42.084Z,100929.22
2023-05-16T13:08:13.920Z,100925.66
2023-05-16T13:10:45.411Z,100926.16
2023-05-16T13:13:25.172Z,100935.25
2023-05-16T13:16:01.139Z,100927.78
2023-05-16T13:18:32.718Z,100924.34
2023-05-16T13:21:04.567Z,100919.09
2023-05-16T13:23:36.065Z,100907.78
2023-05-16T13:26:07.738Z,100911.16
2023-05-16T13:28:39.202Z,100913.94
2023-05-16T13:31:10.956Z,100909.41
2023-05-16T13:33:42.502Z,100918.63
2023-05-16T13:36:14.359Z,100909.78
2023-05-16T13:38:45.900Z,100909.66
2023-05-16T13:41:17.408Z,100926.03
2023-05-16T13:43:49.229Z,100925.16
2023-05-16T13:46:21.276Z,100922.59
2023-05-16T13:48:53.259Z,100929.59
2023-05-16T13:51:24.759Z,100935.25
2023-05-16T13:53:56.677Z,100923.94
2023-05-16T13:56:28.165Z,100937.44
2023-05-16T13:59:04.107Z,100928.16
2023-05-16T14:01:37.735Z,100931.75
2023-05-16T14:04:09.641Z,100924.09
2023-05-16T14:06:43.976Z,100927.75
2023-05-16T14:09:17.594Z,100924.66
2023-05-16T14:11:49.092Z,100932.56
2023-05-16T14:14:20.870Z,100941.56
2023-05-16T14:16:52.937Z,100949.25
2023-05-16T14:19:25.099Z,100944.47
2023-05-16T14:21:57.060Z,100944.38
2023-05-16T14:24:28.552Z,100940.31
2023-05-16T14:27:00.107Z,100943.19
2023-05-16T14:29:31.607Z,100946.72
2023-05-16T14:32:03.544Z,100948.03
2023-05-16T14:34:35.092Z,100943.72
2023-05-16T14:37:06.652Z,100950.97
2023-05-16T14:39:38.141Z,100950.75
2023-05-16T14:42:12.174Z,100951.03
2023-05-16T14:44:43.700Z,100943.19
2023-05-16T14:47:15.202Z,100946.44
2023-05-16T14:49:47.040Z,100946.97
2023-05-16T14:52:18.527Z,100935.59
2023-05-16T14:54:50.228Z,100935.22
2023-05-16T14:57:21.712Z,100936.97
2023-05-16T14:59:53.381Z,100933.47
2023-05-16T15:02:24.920Z,100942.13
2023-05-16T15:04:56.837Z,100938.53
2023-05-16T15:07:28.361Z,100940.91
2023-05-16T15:10:00.277Z,100935.50
2023-05-16T15:12:31.803Z,100939.16
2023-05-16T15:15:03.629Z,100936.41
2023-05-16T15:17:35.170Z,100938.88
2023-05-16T15:20:07.025Z,100941.50
2023-05-16T15:22:38.515Z,100936.84
2023-05-16T15:25:09.993Z,100936.31
2023-05-16T15:27:41.486Z,100932.38
2023-05-16T15:30:13.014Z,100942.59
2023-05-16T15:32:45.107Z,100942.00
2023-05-16T15:35:16.620Z,100725.41
2023-05-16T15:37:48.465Z,100944.31
2023-05-16T15:40:25.013Z,100945.16
2023-05-16T15:42:58.882Z,100955.09
2023-05-16T15:45:30.503Z,100949.75
2023-05-16T15:48:02.369Z,100940.59
2023-05-16T15:50:33.913Z,100957.63
2023-05-16T15:53:05.756Z,100947.19
2023-05-16T15:55:37.309Z,100947.09
2023-05-16T15:58:08.825Z,100934.44
2023-05-16T16:00:40.349Z,100939.44
2023-05-16T16:03:11.949Z,100939.16
2023-05-16T16:05:43.503Z,100938.78
2023-05-16T16:08:14.985Z,100941.31
2023-05-16T16:10:46.492Z,100938.81
2023-05-16T16:13:18.131Z,100934.78
2023-05-16T16:15:49.794Z,100948.59
2023-05-16T16:18:21.329Z,100944.53
2023-05-16T16:20:53.225Z,100948.06
2023-05-16T16:23:24.740Z,100948.63
2023-05-16T16:25:56.766Z,100949.41
2023-05-16T16:28:28.594Z,100944.28
2023-05-16T16:31:00.119Z,100941.88
2023-05-16T16:33:31.649Z,100935.91
2023-05-16T16:36:03.154Z,100941.59
2023-05-16T16:38:34.673Z,100937.25
2023-05-16T16:41:09.096Z,100935.09
2023-05-16T16:43:40.667Z,100940.34
2023-05-16T16:46:12.236Z,100927.94
2023-05-16T16:48:44.049Z,100925.97
2023-05-16T16:51:15.568Z,100919.34
2023-05-16T16:53:47.120Z,100927.56
2023-05-16T16:56:18.645Z,100932.56
2023-05-16T16:58:50.435Z,100935.91
2023-05-16T17:01:22.167Z,100937.69
2023-05-16T17:03:53.744Z,100938.09
2023-05-16T17:06:25.632Z,100939.75
2023-05-16T17:08:57.133Z,100938.13
2023-05-16T17:11:29.088Z,100939.69
2023-05-16T17:14:00.636Z,100942.91
2023-05-16T17:16:32.245Z,100941.13
2023-05-16T17:19:03.857Z,100948.34
2023-05-16T17:21:35.458Z,100955.09
2023-05-16T17:24:06.992Z,100951.28
2023-05-16T17:26:38.548Z,100951.03
2023-05-16T17:29:10.102Z,100957.41
2023-05-16T17:31:41.880Z,100960.88
2023-05-16T17:34:13.362Z,100964.16
2023-05-16T17:36:45.319Z,100965.84
2023-05-16T17:39:16.820Z,100967.78
2023-05-16T17:41:48.659Z,100982.22
2023-05-16T17:44:20.529Z,100978.47
2023-05-16T17:46:52.028Z,100983.09
2023-05-16T17:49:23.660Z,100918.97
2023-05-16T17:51:55.177Z,100986.53
2023-05-16T17:54:26.928Z,100987.66
2023-05-16T17:56:58.410Z,100999.31
2023-05-16T17:59:30.260Z,100998.81
2023-05-16T18:02:01.734Z,100999.88
2023-05-16T18:04:33.540Z,101012.25
2023-05-16T18:07:05.062Z,101010.53
2023-05-16T18:09:36.586Z,101019.75
2023-05-16T18:12:08.204Z,101022.09
2023-05-16T18:14:39.711Z,101027.50
2023-05-16T18:17:11.232Z,100885.63
2023-05-16T18:19:42.937Z,101043.13
2023-05-16T18:22:14.724Z,101049.03
2023-05-16T18:24:46.370Z,101050.31
2023-05-16T18:27:17.868Z,101045.44
2023-05-16T18:29:49.367Z,101045.88
2023-05-16T18:32:20.854Z,101052.91
2023-05-16T18:34:52.455Z,101050.38
2023-05-16T18:37:23.968Z,101046.41
2023-05-16T18:39:55.526Z,100968.97
2023-05-16T18:42:27.406Z,101051.44
2023-05-16T18:44:58.934Z,101057.72
2023-05-16T18:47:30.804Z,101062.47
2023-05-16T18:50:03.008Z,101058.97
2023-05-16T18:52:34.519Z,101073.19
2023-05-16T18:55:06.313Z,101078.84
2023-05-16T18:57:37.835Z,101081.09
2023-05-16T19:00:09.563Z,101086.75
2023-05-16T19:02:42.574Z,101091.97
2023-05-16T19:05:14.587Z,101103.31
2023-05-16T19:07:46.190Z,101109.34
2023-05-16T19:10:18.056Z,101105.91
2023-05-16T19:12:49.662Z,101119.16
2023-05-16T19:15:21.347Z,101118.78
2023-05-16T19:17:52.998Z,101124.00
2023-05-16T19:20:24.971Z,101130.03
2023-05-16T19:22:56.789Z,101135.00
2023-05-16T19:25:28.302Z,101138.00
2023-05-16T19:27:59.916Z,101138.13
2023-05-16T19:30:31.431Z,101139.81
2023-05-16T19:33:03.229Z,101151.19
2023-05-16T19:35:34.756Z,101153.34
2023-05-16T19:38:06.578Z,101143.75
2023-05-16T19:40:38.065Z,101158.78
2023-05-16T19:43:09.590Z,101156.63
2023-05-16T19:45:41.091Z,101159.34
2023-05-16T19:48:14.200Z,101170.53
2023-05-16T19:50:45.741Z,101179.22
2023-05-16T19:53:17.226Z,101175.13
2023-05-16T19:55:48.736Z,101174.13
2023-05-16T19:58:20.545Z,101179.88
2023-05-16T20:00:52.304Z,101170.47
2023-05-16T20:03:23.856Z,101179.34
2023-05-16T20:05:55.441Z,101177.50
2023-05-16T20:08:26.947Z,101177.94
2023-05-16T20:10:58.901Z,101180.66
2023-05-16T20:13:30.375Z,101189.09
2023-05-16T20:16:01.890Z,101193.41
2023-05-16T20:18:33.472Z,101206.81
2023-05-16T20:21:05.249Z,101196.00
2023-05-16T20:23:36.760Z,101193.31
2023-05-16T20:26:08.735Z,101190.28
2023-05-16T20:28:40.246Z,101191.53
2023-05-16T20:31:11.940Z,101197.69
2023-05-16T20:33:43.872Z,101189.69
2023-05-16T20:36:15.432Z,101198.34
2023-05-16T20:38:47.300Z,101197.13
2023-05-16T20:41:18.825Z,101194.66
2023-05-16T20:43:50.655Z,101202.69
2023-05-16T20:46:22.241Z,101197.59
2023-05-16T20:48:54.217Z,101186.53
2023-05-16T20:51:25.801Z,101195.13
2023-05-16T20:53:57.829Z,101197.59
2023-05-16T20:56:29.341Z,101202.75
2023-05-16T20:59:01.154Z,101200.91
2023-05-16T21:01:32.646Z,101205.66
2023-05-16T21:04:04.353Z,101201.34
2023-05-16T21:06:35.933Z,101212.44
2023-05-16T21:09:07.588Z,101213.06
2023-05-16T21:11:39.083Z,101205.66
2023-05-16T21:14:10.620Z,101211.19
2023-05-16T21:16:42.461Z,101213.25
2023-05-16T21:19:14.121Z,101224.72
2023-05-16T21:21:46.060Z,101222.28
2023-05-16T21:24:17.562Z,101218.59
2023-05-16T21:26:49.400Z,101222.66
2023-05-16T21:29:20.931Z,101226.75
2023-05-16T21:31:52.789Z,101232.50
2023-05-16T21:34:24.325Z,101228.19
2023-05-16T21:36:56.169Z,101234.09
2023-05-16T21:39:27.688Z,101236.97
2023-05-16T21:41:59.219Z,101229.78
2023-05-16T21:44:30.918Z,101225.09
2023-05-16T21:47:02.464Z,101221.59
2023-05-16T21:49:33.993Z,101233.25
2023-05-16T21:52:07.076Z,101227.13
2023-05-16T21:54:39.230Z,101232.03
2023-05-16T21:57:10.755Z,101233.22
2023-05-16T21:59:42.573Z,101236.47
2023-05-16T22:02:14.093Z,101233.00
2023-05-16T22:04:45.999Z,101230.31
2023-05-16T22:07:17.533Z,101231.16
2023-05-16T22:09:49.441Z,101228.25
2023-05-16T22:12:20.944Z,101234.00
2023-05-16T22:14:52.745Z,101236.22
2023-05-16T22:17:24.292Z,101236.44
2023-05-16T22:19:56.157Z,101231.50
2023-05-16T22:22:27.840Z,101233.56
2023-05-16T22:24:59.336Z,101233.75
2023-05-16T22:27:31.362Z,101239.69
2023-05-16T22:30:02.872Z,101117.34
2023-05-16T22:32:34.458Z,101236.97
2023-05-16T22:35:05.969Z,101239.19
2023-05-16T22:37:37.623Z,101236.75
2023-05-16T22:40:09.181Z,101238.97
2023-05-16T22:42:40.696Z,101239.16
2023-05-16T22:45:12.246Z,101244.88
2023-05-16T22:47:44.099Z,101247.94
2023-05-16T22:50:15.645Z,101246.91
2023-05-16T22:52:47.496Z,101249.75
2023-05-16T22:55:19.360Z,101248.13
2023-05-16T22:57:51.163Z,101248.94
2023-05-16T23:00:23.072Z,101248.31
2023-05-16T23:02:54.633Z,101249.72
2023-05-16T23:05:26.692Z,101251.72
2023-05-16T23:07:58.299Z,101253.13
2023-05-16T23:10:30.128Z,101247.63
2023-05-16T23:13:01.735Z,101248.00
2023-05-16T23:15:33.571Z,101259.66
2023-05-16T23:18:05.176Z,101266.41
2023-05-16T23:20:36.743Z,101263.94
2023-05-16T23:23:08.594Z,101256.97
2023-05-16T23:25:40.118Z,101259.00
2023-05-16T23:28:12.078Z,101261.03
2023-05-16T23:30:43.567Z,101261.81
2023-05-16T23:33:15.510Z,101258.28
2023-05-16T23:35:47.131Z,101263.59
2023-05-16T23:38:18.942Z,101266.28
2023-05-16T23:40:50.453Z,101270.97
2023-05-16T23:43:22.302Z,101265.84
2023-05-16T23:45:53.864Z,101269.69
2023-05-16T23:48:25.986Z,101267.41
2023-05-16T23:50:57.630Z,101282.34
2023-05-16T23:53:29.589Z,101279.63
2023-05-16T23:56:01.142Z,101281.84
2023-05-16T23:58:33.027Z,101273.88
